DAL2282 KSLC-KJAC
Flight info
| Callsign | DAL2282 |
|---|---|
| Flight time | 0h 43m |
| Altitude | 35000 |
| Route | RUGGD3 HOLTR ELLKK MOSSS |
| Aircraft | A319/M-SDE3FGHIRWY/LB1 |
Departure
| Time | 2026-05-06 22:32 |
|---|---|
| Airport | Salt Lake City International Airport (KSLC) |
Arrival
| Time | 2026-05-06 23:15 |
|---|---|
| Airport | Jackson Hole Airport (KJAC) |
| Time | Latitude | Longitude | Altitude | Speed | Heading |
|---|---|---|---|---|---|
| 2026-05-06 22:17 | 40.78556 | -111.97918 | 4231 ft | 0 kts | 355° |
| 2026-05-06 22:25 | 40.78553 | -111.97917 | 4231 ft | 3 kts | 356° |
| 2026-05-06 22:25 | 40.78526 | -111.97917 | 4231 ft | 4 kts | 11° |
| 2026-05-06 22:26 | 40.78503 | -111.97930 | 4231 ft | 4 kts | 49° |
| 2026-05-06 22:26 | 40.78495 | -111.97949 | 4231 ft | 1 kts | 85° |
| 2026-05-06 22:26 | 40.78495 | -111.97953 | 4231 ft | 0 kts | 85° |
| 2026-05-06 22:28 | 40.78495 | -111.97952 | 4231 ft | 0 kts | 85° |
| 2026-05-06 22:28 | 40.78496 | -111.97938 | 4231 ft | 3 kts | 83° |
| 2026-05-06 22:28 | 40.78499 | -111.97888 | 4231 ft | 10 kts | 84° |
| 2026-05-06 22:29 | 40.78512 | -111.97757 | 4231 ft | 16 kts | 87° |
| 2026-05-06 22:29 | 40.78477 | -111.97648 | 4231 ft | 17 kts | 165° |
| 2026-05-06 22:29 | 40.78328 | -111.97632 | 4230 ft | 26 kts | 176° |
| 2026-05-06 22:29 | 40.78118 | -111.97610 | 4230 ft | 35 kts | 175° |
| 2026-05-06 22:30 | 40.77877 | -111.97550 | 4231 ft | 28 kts | 156° |
| 2026-05-06 22:30 | 40.77710 | -111.97514 | 4231 ft | 20 kts | 178° |
| 2026-05-06 22:30 | 40.77543 | -111.97494 | 4231 ft | 29 kts | 173° |
| 2026-05-06 22:30 | 40.77453 | -111.97461 | 4231 ft | 12 kts | 129° |
| 2026-05-06 22:31 | 40.77477 | -111.97351 | 4231 ft | 16 kts | 53° |
| 2026-05-06 22:31 | 40.77517 | -111.97318 | 4231 ft | 0 kts | 353° |
| 2026-05-06 22:31 | 40.77580 | -111.97327 | 4231 ft | 38 kts | 354° |
| 2026-05-06 22:31 | 40.78096 | -111.97390 | 4231 ft | 108 kts | 354° |
| 2026-05-06 22:32 | 40.79033 | -111.97500 | 4233 ft | 160 kts | 355° |
| 2026-05-06 22:32 | 40.80175 | -111.97631 | 4755 ft | 163 kts | 353° |
| 2026-05-06 22:32 | 40.81318 | -111.97784 | 5350 ft | 168 kts | 351° |
| 2026-05-06 22:32 | 40.82481 | -111.97959 | 5991 ft | 170 kts | 351° |
| 2026-05-06 22:33 | 40.83727 | -111.98162 | 6369 ft | 191 kts | 350° |
| 2026-05-06 22:33 | 40.85123 | -111.98397 | 6682 ft | 216 kts | 351° |
| 2026-05-06 22:33 | 40.86704 | -111.98667 | 7099 ft | 241 kts | 351° |
| 2026-05-06 22:33 | 40.88447 | -111.98967 | 7591 ft | 264 kts | 351° |
| 2026-05-06 22:34 | 40.90319 | -111.99283 | 8307 ft | 276 kts | 351° |
| 2026-05-06 22:34 | 40.92245 | -111.99605 | 9181 ft | 281 kts | 351° |
| 2026-05-06 22:34 | 40.94196 | -111.99927 | 10073 ft | 285 kts | 351° |
| 2026-05-06 22:34 | 40.96232 | -112.00259 | 10554 ft | 306 kts | 352° |
| 2026-05-06 22:35 | 40.98407 | -112.00613 | 11037 ft | 321 kts | 352° |
| 2026-05-06 22:35 | 41.00651 | -112.00925 | 11824 ft | 327 kts | 357° |
| 2026-05-06 22:35 | 41.02916 | -112.00471 | 12683 ft | 333 kts | 17° |
| 2026-05-06 22:35 | 41.04963 | -111.99014 | 13562 ft | 340 kts | 35° |
| 2026-05-06 22:36 | 41.06557 | -111.96670 | 14388 ft | 348 kts | 54° |
| 2026-05-06 22:36 | 41.07644 | -111.93773 | 15202 ft | 352 kts | 61° |
| 2026-05-06 22:36 | 41.08674 | -111.90817 | 15996 ft | 354 kts | 60° |
| 2026-05-06 22:36 | 41.09704 | -111.87847 | 16761 ft | 356 kts | 60° |
| 2026-05-06 22:37 | 41.10745 | -111.84856 | 17496 ft | 357 kts | 60° |
| 2026-05-06 22:37 | 41.11851 | -111.81961 | 18187 ft | 356 kts | 52° |
| 2026-05-06 22:37 | 41.13377 | -111.79418 | 18891 ft | 351 kts | 40° |
| 2026-05-06 22:37 | 41.15276 | -111.77407 | 19562 ft | 348 kts | 28° |
| 2026-05-06 22:38 | 41.17449 | -111.76020 | 20179 ft | 347 kts | 16° |
| 2026-05-06 22:38 | 41.19797 | -111.75280 | 20794 ft | 348 kts | 8° |
| 2026-05-06 22:38 | 41.22192 | -111.74726 | 21409 ft | 350 kts | 8° |
| 2026-05-06 22:38 | 41.24604 | -111.74163 | 22020 ft | 354 kts | 8° |
| 2026-05-06 22:39 | 41.27033 | -111.73587 | 22609 ft | 356 kts | 8° |
| 2026-05-06 22:39 | 41.29478 | -111.73003 | 23146 ft | 358 kts | 9° |
| 2026-05-06 22:39 | 41.31941 | -111.72419 | 23671 ft | 361 kts | 9° |
| 2026-05-06 22:39 | 41.34421 | -111.71833 | 24105 ft | 363 kts | 8° |
| 2026-05-06 22:40 | 41.36921 | -111.71239 | 24565 ft | 367 kts | 8° |
| 2026-05-06 22:40 | 41.39433 | -111.70569 | 25071 ft | 369 kts | 13° |
| 2026-05-06 22:40 | 41.41910 | -111.69597 | 25544 ft | 372 kts | 14° |
| 2026-05-06 22:40 | 41.44400 | -111.68617 | 25990 ft | 374 kts | 14° |
| 2026-05-06 22:41 | 41.49429 | -111.66644 | 26894 ft | 379 kts | 14° |
| 2026-05-06 22:41 | 41.51963 | -111.65655 | 27330 ft | 381 kts | 14° |
| 2026-05-06 22:41 | 41.54514 | -111.64657 | 27730 ft | 383 kts | 14° |
| 2026-05-06 22:42 | 41.57078 | -111.63652 | 28148 ft | 385 kts | 14° |
| 2026-05-06 22:42 | 41.59654 | -111.62640 | 28554 ft | 387 kts | 14° |
| 2026-05-06 22:42 | 41.62247 | -111.61618 | 28969 ft | 389 kts | 14° |
| 2026-05-06 22:42 | 41.64849 | -111.60589 | 29341 ft | 391 kts | 14° |
| 2026-05-06 22:43 | 41.67468 | -111.59558 | 29702 ft | 393 kts | 14° |
| 2026-05-06 22:43 | 41.70069 | -111.58534 | 30048 ft | 395 kts | 14° |
| 2026-05-06 22:43 | 41.72714 | -111.57492 | 30384 ft | 397 kts | 14° |
| 2026-05-06 22:43 | 41.75370 | -111.56443 | 30699 ft | 399 kts | 14° |
| 2026-05-06 22:44 | 41.78038 | -111.55391 | 31021 ft | 401 kts | 14° |
| 2026-05-06 22:44 | 41.80744 | -111.54501 | 31318 ft | 401 kts | 8° |
| 2026-05-06 22:44 | 41.83503 | -111.53876 | 31616 ft | 403 kts | 8° |
| 2026-05-06 22:44 | 41.86263 | -111.53256 | 32050 ft | 402 kts | 8° |
| 2026-05-06 22:45 | 41.89015 | -111.52636 | 32497 ft | 400 kts | 7° |
| 2026-05-06 22:45 | 41.91755 | -111.52017 | 32900 ft | 399 kts | 7° |
| 2026-05-06 22:45 | 41.94490 | -111.51400 | 33304 ft | 398 kts | 7° |
| 2026-05-06 22:45 | 41.97213 | -111.50787 | 33710 ft | 396 kts | 7° |
| 2026-05-06 22:46 | 41.99928 | -111.50175 | 34103 ft | 395 kts | 7° |
| 2026-05-06 22:46 | 42.02636 | -111.49564 | 34490 ft | 394 kts | 7° |
| 2026-05-06 22:46 | 42.05339 | -111.48953 | 34858 ft | 394 kts | 7° |
| 2026-05-06 22:46 | 42.08039 | -111.48339 | 35110 ft | 394 kts | 7° |
| 2026-05-06 22:47 | 42.10731 | -111.47725 | 35166 ft | 390 kts | 7° |
| 2026-05-06 22:47 | 42.16040 | -111.46516 | 35154 ft | 385 kts | 7° |
| 2026-05-06 22:48 | 42.21320 | -111.45317 | 35157 ft | 385 kts | 7° |
| 2026-05-06 22:48 | 42.26603 | -111.44115 | 35155 ft | 385 kts | 7° |
| 2026-05-06 22:49 | 42.31816 | -111.42454 | 35157 ft | 389 kts | 16° |
| 2026-05-06 22:49 | 42.36856 | -111.39942 | 35156 ft | 388 kts | 16° |
| 2026-05-06 22:50 | 42.41926 | -111.37424 | 35159 ft | 388 kts | 16° |
| 2026-05-06 22:50 | 42.46995 | -111.34899 | 35161 ft | 388 kts | 16° |
| 2026-05-06 22:51 | 42.52066 | -111.32374 | 35160 ft | 388 kts | 16° |
| 2026-05-06 22:51 | 42.57131 | -111.29849 | 35159 ft | 388 kts | 16° |
| 2026-05-06 22:52 | 42.62186 | -111.27330 | 35161 ft | 387 kts | 16° |
| 2026-05-06 22:52 | 42.67246 | -111.24801 | 35157 ft | 387 kts | 16° |
| 2026-05-06 22:53 | 42.72292 | -111.22264 | 35151 ft | 386 kts | 16° |
| 2026-05-06 22:53 | 42.77339 | -111.19721 | 35141 ft | 387 kts | 16° |
| 2026-05-06 22:54 | 42.82386 | -111.17179 | 35146 ft | 387 kts | 16° |
| 2026-05-06 22:54 | 42.87429 | -111.14634 | 35143 ft | 386 kts | 16° |
| 2026-05-06 22:55 | 42.92396 | -111.11780 | 35140 ft | 392 kts | 25° |
| 2026-05-06 22:55 | 42.96797 | -111.07255 | 35140 ft | 398 kts | 32° |
| 2026-05-06 22:56 | 43.01128 | -111.02540 | 35001 ft | 399 kts | 32° |
| 2026-05-06 22:56 | 43.03297 | -111.00184 | 34743 ft | 398 kts | 32° |
| 2026-05-06 22:56 | 43.05460 | -110.97829 | 34377 ft | 396 kts | 32° |
| 2026-05-06 22:56 | 43.07601 | -110.95490 | 33867 ft | 391 kts | 32° |
| 2026-05-06 22:57 | 43.09719 | -110.93177 | 33323 ft | 388 kts | 32° |
| 2026-05-06 22:57 | 43.11824 | -110.90880 | 32774 ft | 386 kts | 32° |
| 2026-05-06 22:57 | 43.13912 | -110.88598 | 32234 ft | 383 kts | 32° |
| 2026-05-06 22:57 | 43.15980 | -110.86334 | 31704 ft | 379 kts | 32° |
| 2026-05-06 22:58 | 43.18025 | -110.84093 | 31191 ft | 375 kts | 32° |
| 2026-05-06 22:58 | 43.20027 | -110.81900 | 30682 ft | 372 kts | 32° |
| 2026-05-06 22:58 | 43.22043 | -110.79691 | 30173 ft | 369 kts | 32° |
| 2026-05-06 22:58 | 43.24062 | -110.77477 | 29666 ft | 365 kts | 32° |
| 2026-05-06 22:59 | 43.26012 | -110.75333 | 29178 ft | 362 kts | 32° |
| 2026-05-06 22:59 | 43.27996 | -110.73146 | 28682 ft | 359 kts | 32° |
| 2026-05-06 22:59 | 43.29910 | -110.71034 | 28206 ft | 357 kts | 32° |
| 2026-05-06 22:59 | 43.31842 | -110.68903 | 27713 ft | 355 kts | 32° |
| 2026-05-06 23:00 | 43.33758 | -110.66788 | 27249 ft | 352 kts | 32° |
| 2026-05-06 23:00 | 43.35654 | -110.64691 | 26780 ft | 349 kts | 33° |
| 2026-05-06 23:00 | 43.37541 | -110.62601 | 26319 ft | 348 kts | 32° |
| 2026-05-06 23:00 | 43.39423 | -110.60518 | 25868 ft | 346 kts | 32° |
| 2026-05-06 23:01 | 43.41290 | -110.58453 | 25428 ft | 343 kts | 32° |
| 2026-05-06 23:01 | 43.43144 | -110.56403 | 24991 ft | 340 kts | 32° |
| 2026-05-06 23:01 | 43.44975 | -110.54379 | 24564 ft | 335 kts | 32° |
| 2026-05-06 23:01 | 43.46779 | -110.52381 | 24162 ft | 331 kts | 32° |
| 2026-05-06 23:02 | 43.48565 | -110.50400 | 23755 ft | 329 kts | 32° |
| 2026-05-06 23:02 | 43.50338 | -110.48431 | 23355 ft | 325 kts | 32° |
| 2026-05-06 23:02 | 43.52094 | -110.46476 | 22972 ft | 324 kts | 32° |
| 2026-05-06 23:02 | 43.53844 | -110.44526 | 22570 ft | 323 kts | 32° |
| 2026-05-06 23:03 | 43.55587 | -110.42587 | 22177 ft | 321 kts | 32° |
| 2026-05-06 23:03 | 43.57322 | -110.40653 | 21788 ft | 319 kts | 33° |
| 2026-05-06 23:03 | 43.59042 | -110.38731 | 21377 ft | 318 kts | 33° |
| 2026-05-06 23:03 | 43.60757 | -110.36812 | 20973 ft | 317 kts | 33° |
| 2026-05-06 23:04 | 43.62464 | -110.34902 | 20571 ft | 314 kts | 33° |
| 2026-05-06 23:04 | 43.64155 | -110.33008 | 20162 ft | 313 kts | 33° |
| 2026-05-06 23:04 | 43.65872 | -110.31194 | 19754 ft | 308 kts | 26° |
| 2026-05-06 23:04 | 43.67782 | -110.29971 | 19328 ft | 300 kts | 13° |
| 2026-05-06 23:05 | 43.69813 | -110.29453 | 18904 ft | 295 kts | 0° |
| 2026-05-06 23:05 | 43.71846 | -110.29623 | 18471 ft | 292 kts | 348° |
| 2026-05-06 23:05 | 43.73814 | -110.30307 | 18049 ft | 291 kts | 345° |
| 2026-05-06 23:05 | 43.75769 | -110.31018 | 17620 ft | 291 kts | 345° |
| 2026-05-06 23:06 | 43.77733 | -110.31724 | 17126 ft | 291 kts | 345° |
| 2026-05-06 23:06 | 43.79668 | -110.32414 | 16688 ft | 284 kts | 345° |
| 2026-05-06 23:06 | 43.81446 | -110.33477 | 16276 ft | 277 kts | 326° |
| 2026-05-06 23:06 | 43.82771 | -110.35371 | 15863 ft | 275 kts | 305° |
| 2026-05-06 23:07 | 43.83476 | -110.37815 | 15452 ft | 274 kts | 286° |
| 2026-05-06 23:07 | 43.83843 | -110.40374 | 15063 ft | 268 kts | 285° |
| 2026-05-06 23:07 | 43.84199 | -110.42864 | 14670 ft | 260 kts | 285° |
| 2026-05-06 23:07 | 43.84548 | -110.45277 | 14295 ft | 251 kts | 285° |
| 2026-05-06 23:08 | 43.84891 | -110.47614 | 13935 ft | 243 kts | 285° |
| 2026-05-06 23:08 | 43.85222 | -110.49876 | 13586 ft | 237 kts | 285° |
| 2026-05-06 23:08 | 43.85545 | -110.52088 | 13354 ft | 230 kts | 284° |
| 2026-05-06 23:08 | 43.85858 | -110.54233 | 12978 ft | 225 kts | 284° |
| 2026-05-06 23:09 | 43.86149 | -110.56325 | 12595 ft | 217 kts | 280° |
| 2026-05-06 23:09 | 43.86078 | -110.58398 | 12238 ft | 216 kts | 261° |
| 2026-05-06 23:09 | 43.85507 | -110.60337 | 11665 ft | 221 kts | 241° |
| 2026-05-06 23:09 | 43.84470 | -110.61876 | 11196 ft | 222 kts | 220° |
| 2026-05-06 23:10 | 43.83093 | -110.62826 | 10882 ft | 215 kts | 201° |
| 2026-05-06 23:10 | 43.81730 | -110.63490 | 10603 ft | 206 kts | 202° |
| 2026-05-06 23:10 | 43.80388 | -110.64150 | 10347 ft | 198 kts | 202° |
| 2026-05-06 23:10 | 43.79100 | -110.64783 | 10085 ft | 194 kts | 202° |
| 2026-05-06 23:11 | 43.77852 | -110.65396 | 9818 ft | 186 kts | 202° |
| 2026-05-06 23:11 | 43.76668 | -110.65977 | 9580 ft | 181 kts | 202° |
| 2026-05-06 23:11 | 43.75478 | -110.66562 | 9337 ft | 177 kts | 202° |
| 2026-05-06 23:11 | 43.74338 | -110.67121 | 9101 ft | 171 kts | 201° |
| 2026-05-06 23:12 | 43.73237 | -110.67660 | 8887 ft | 164 kts | 201° |
| 2026-05-06 23:12 | 43.72211 | -110.68163 | 8675 ft | 155 kts | 202° |
| 2026-05-06 23:12 | 43.71206 | -110.68655 | 8470 ft | 152 kts | 202° |
| 2026-05-06 23:12 | 43.70220 | -110.69138 | 8275 ft | 150 kts | 202° |
| 2026-05-06 23:13 | 43.69244 | -110.69616 | 8071 ft | 149 kts | 202° |
| 2026-05-06 23:13 | 43.68272 | -110.70086 | 7860 ft | 148 kts | 201° |
| 2026-05-06 23:13 | 43.67340 | -110.70532 | 7700 ft | 147 kts | 201° |
| 2026-05-06 23:13 | 43.66687 | -110.70844 | 7575 ft | 147 kts | 202° |
| 2026-05-06 23:14 | 43.65726 | -110.71323 | 7367 ft | 146 kts | 202° |
| 2026-05-06 23:14 | 43.64769 | -110.71793 | 7177 ft | 146 kts | 201° |
| 2026-05-06 23:14 | 43.63811 | -110.72256 | 6943 ft | 146 kts | 202° |
| 2026-05-06 23:14 | 43.62844 | -110.72736 | 6753 ft | 148 kts | 203° |
| 2026-05-06 23:15 | 43.61881 | -110.73212 | 6538 ft | 147 kts | 201° |
| 2026-05-06 23:15 | 43.60961 | -110.73663 | 6425 ft | 123 kts | 197° |
| 2026-05-06 23:15 | 43.60452 | -110.73908 | 6417 ft | 32 kts | 199° |
| 2026-05-06 23:15 | 43.60385 | -110.73866 | 6417 ft | 4 kts | 102° |
| 2026-05-06 23:16 | 43.60381 | -110.73846 | 6416 ft | 0 kts | 109° |
| 2026-05-06 23:16 | 43.60381 | -110.73845 | 6418 ft | 1 kts | 109° |
| 2026-05-06 23:16 | 43.60370 | -110.73810 | 6417 ft | 6 kts | 120° |
| 2026-05-06 23:16 | 43.60349 | -110.73765 | 6421 ft | 8 kts | 123° |
| 2026-05-06 23:17 | 43.60340 | -110.73730 | 6421 ft | 3 kts | 107° |
| 2026-05-06 23:17 | 43.60338 | -110.73720 | 6424 ft | 0 kts | 108° |